createdAt,value
2018-07-20T00:00:11.653Z,64
2018-07-20T00:00:24.203Z,64
2018-07-20T00:00:36.638Z,64
2018-07-20T00:00:49.047Z,64
2018-07-20T00:01:01.465Z,64
2018-07-20T00:01:13.895Z,64
2018-07-20T00:01:26.298Z,64
2018-07-20T00:01:38.715Z,64
2018-07-20T00:01:51.254Z,64
2018-07-20T00:02:03.661Z,65
2018-07-20T00:02:16.054Z,65
2018-07-20T00:02:28.472Z,65
2018-07-20T00:02:40.862Z,65
2018-07-20T00:02:53.253Z,64
2018-07-20T00:03:05.672Z,64
2018-07-20T00:03:18.066Z,64
2018-07-20T00:03:30.448Z,64
2018-07-20T00:03:43.014Z,64
2018-07-20T00:03:55.414Z,64
2018-07-20T00:04:07.801Z,64
2018-07-20T00:04:20.186Z,64
2018-07-20T00:04:32.584Z,65
2018-07-20T00:04:45.019Z,65
2018-07-20T00:04:57.429Z,65
2018-07-20T00:05:09.831Z,65
2018-07-20T00:05:22.218Z,65
2018-07-20T00:05:34.607Z,65
2018-07-20T00:05:47.017Z,65
2018-07-20T00:05:59.409Z,65
2018-07-20T00:06:11.879Z,65
2018-07-20T00:06:24.297Z,65
2018-07-20T00:06:36.709Z,65
2018-07-20T00:06:49.096Z,65
2018-07-20T00:07:01.499Z,65
2018-07-20T00:07:13.934Z,65
2018-07-20T00:07:26.306Z,65
2018-07-20T00:07:38.710Z,65
2018-07-20T00:07:51.095Z,65
2018-07-20T00:08:03.754Z,66
2018-07-20T00:08:16.959Z,66
2018-07-20T00:08:29.365Z,66
2018-07-20T00:08:41.825Z,66
2018-07-20T00:08:54.223Z,65
2018-07-20T00:09:06.622Z,65
2018-07-20T00:09:19.003Z,65
2018-07-20T00:09:31.412Z,65
2018-07-20T00:09:44.029Z,66
2018-07-20T00:09:56.450Z,66
2018-07-20T00:10:08.866Z,66
2018-07-20T00:10:21.271Z,66
2018-07-20T00:10:33.666Z,65
2018-07-20T00:10:46.204Z,65
2018-07-20T00:10:58.592Z,65
2018-07-20T00:11:11.039Z,65
2018-07-20T00:11:23.451Z,65
2018-07-20T00:11:35.847Z,65
2018-07-20T00:11:48.259Z,65
2018-07-20T00:12:00.688Z,65
2018-07-20T00:12:13.075Z,65
2018-07-20T00:12:25.487Z,65
2018-07-20T00:12:37.888Z,65
2018-07-20T00:12:50.284Z,65
2018-07-20T00:13:02.782Z,65
2018-07-20T00:13:15.180Z,65
2018-07-20T00:13:27.754Z,65
2018-07-20T00:13:40.170Z,65
2018-07-20T00:13:52.577Z,65
2018-07-20T00:14:05.014Z,65
2018-07-20T00:14:17.412Z,65
2018-07-20T00:14:29.804Z,65
2018-07-20T00:14:42.193Z,65
2018-07-20T00:14:54.582Z,66
2018-07-20T00:15:07.003Z,66
2018-07-20T00:15:19.473Z,66
2018-07-20T00:15:31.880Z,66
2018-07-20T00:15:44.264Z,66
2018-07-20T00:15:56.652Z,66
2018-07-20T00:16:09.043Z,66
2018-07-20T00:16:21.432Z,66
2018-07-20T00:16:33.822Z,66
2018-07-20T00:16:46.689Z,66
2018-07-20T00:16:59.598Z,66
2018-07-20T00:17:11.999Z,66
2018-07-20T00:17:24.386Z,66
2018-07-20T00:17:36.783Z,66
2018-07-20T00:17:49.183Z,66
2018-07-20T00:18:01.581Z,66
2018-07-20T00:18:13.975Z,66
2018-07-20T00:18:26.409Z,66
2018-07-20T00:18:38.818Z,66
2018-07-20T00:18:51.224Z,66
2018-07-20T00:19:03.750Z,66
2018-07-20T00:19:16.164Z,66
2018-07-20T00:19:28.566Z,66
2018-07-20T00:19:40.998Z,66
2018-07-20T00:19:53.393Z,67
2018-07-20T00:20:05.773Z,67
2018-07-20T00:20:18.170Z,67
2018-07-20T00:20:30.573Z,67
2018-07-20T00:20:43.104Z,67
2018-07-20T00:20:55.496Z,67
2018-07-20T00:21:07.917Z,67
2018-07-20T00:21:20.338Z,67
2018-07-20T00:21:32.736Z,67
2018-07-20T00:21:45.139Z,67
2018-07-20T00:21:57.533Z,67
2018-07-20T00:22:10.282Z,67
2018-07-20T00:22:23.336Z,67
2018-07-20T00:22:35.745Z,67
2018-07-20T00:22:48.146Z,67
2018-07-20T00:23:00.557Z,67
2018-07-20T00:23:13.129Z,67
2018-07-20T00:23:25.539Z,67
2018-07-20T00:23:37.923Z,67
2018-07-20T00:23:50.325Z,67
2018-07-20T00:24:02.723Z,67
2018-07-20T00:24:15.201Z,67
2018-07-20T00:24:27.609Z,67
2018-07-20T00:24:40.011Z,67
2018-07-20T00:24:52.422Z,67
2018-07-20T00:25:04.998Z,67
2018-07-20T00:25:17.385Z,67
2018-07-20T00:25:29.769Z,67
2018-07-20T00:25:42.166Z,67
2018-07-20T00:25:54.558Z,67
2018-07-20T00:26:06.966Z,67
2018-07-20T00:26:19.367Z,67
2018-07-20T00:26:31.768Z,67
2018-07-20T00:26:44.174Z,67
2018-07-20T00:26:56.580Z,67
2018-07-20T00:27:08.997Z,67
2018-07-20T00:27:21.405Z,67
2018-07-20T00:27:33.830Z,67
2018-07-20T00:27:46.227Z,67
2018-07-20T00:27:58.667Z,67
2018-07-20T00:28:11.058Z,67
2018-07-20T00:28:23.471Z,67
2018-07-20T00:28:35.878Z,67
2018-07-20T00:28:48.260Z,67
2018-07-20T00:29:00.657Z,67
2018-07-20T00:29:13.058Z,67
2018-07-20T00:29:25.459Z,68
2018-07-20T00:29:37.856Z,68
2018-07-20T00:29:50.244Z,68
2018-07-20T00:30:02.669Z,68
2018-07-20T00:30:15.090Z,68
2018-07-20T00:30:28.188Z,68
2018-07-20T00:30:40.721Z,68
2018-07-20T00:30:53.266Z,68
2018-07-20T00:31:05.656Z,68
2018-07-20T00:31:18.223Z,68
2018-07-20T00:31:30.623Z,68
2018-07-20T00:31:43.019Z,68
2018-07-20T00:31:55.410Z,68
2018-07-20T00:32:07.795Z,68
2018-07-20T00:32:20.205Z,68
2018-07-20T00:32:32.675Z,68
2018-07-20T00:32:45.095Z,68
2018-07-20T00:32:57.509Z,68
2018-07-20T00:33:09.915Z,68
2018-07-20T00:33:22.312Z,68
2018-07-20T00:33:34.726Z,68
2018-07-20T00:33:47.126Z,68
2018-07-20T00:33:59.564Z,68
2018-07-20T00:34:11.954Z,68
2018-07-20T00:34:24.356Z,68
2018-07-20T00:34:36.770Z,68
2018-07-20T00:34:49.174Z,68
2018-07-20T00:35:01.606Z,68
2018-07-20T00:35:14.019Z,68
2018-07-20T00:35:26.411Z,68
2018-07-20T00:35:38.808Z,68
2018-07-20T00:35:51.210Z,68
2018-07-20T00:36:03.612Z,68
2018-07-20T00:36:16.018Z,68
2018-07-20T00:36:28.417Z,68
2018-07-20T00:36:40.813Z,68
2018-07-20T00:36:53.212Z,68
2018-07-20T00:37:05.596Z,68
2018-07-20T00:37:18.005Z,68
2018-07-20T00:37:30.494Z,68
2018-07-20T00:37:42.918Z,68
2018-07-20T00:37:55.308Z,69
2018-07-20T00:38:07.734Z,69
2018-07-20T00:38:20.143Z,69
2018-07-20T00:38:32.570Z,69
2018-07-20T00:38:45.025Z,69
2018-07-20T00:38:57.406Z,69
2018-07-20T00:39:09.804Z,69
2018-07-20T00:39:22.201Z,69
2018-07-20T00:39:34.584Z,70
2018-07-20T00:39:46.988Z,70
2018-07-20T00:39:59.383Z,70
2018-07-20T00:40:11.798Z,70
2018-07-20T00:40:24.216Z,70
2018-07-20T00:40:36.616Z,70
2018-07-20T00:40:49.055Z,70
2018-07-20T00:41:01.464Z,70
2018-07-20T00:41:14.057Z,70
2018-07-20T00:41:26.532Z,70
2018-07-20T00:41:38.945Z,70
2018-07-20T00:41:51.344Z,70
2018-07-20T00:42:03.781Z,70
2018-07-20T00:42:16.177Z,70
2018-07-20T00:42:28.668Z,70
2018-07-20T00:42:41.057Z,70
2018-07-20T00:42:53.469Z,70
2018-07-20T00:43:05.851Z,70
2018-07-20T00:43:18.289Z,70
2018-07-20T00:43:30.697Z,70
2018-07-20T00:43:43.088Z,70
2018-07-20T00:43:55.509Z,71
2018-07-20T00:44:07.909Z,71
2018-07-20T00:44:20.322Z,71
2018-07-20T00:44:32.741Z,71
2018-07-20T00:44:45.134Z,71
2018-07-20T00:44:57.524Z,71
2018-07-20T00:45:10.006Z,71
2018-07-20T00:45:22.413Z,71
2018-07-20T00:45:34.816Z,71
2018-07-20T00:45:47.275Z,71
2018-07-20T00:45:59.703Z,71
2018-07-20T00:46:12.130Z,71
2018-07-20T00:46:24.552Z,71
2018-07-20T00:46:36.941Z,71
2018-07-20T00:46:49.331Z,71
2018-07-20T00:47:01.719Z,71
2018-07-20T00:47:14.119Z,71
2018-07-20T00:47:26.502Z,71
2018-07-20T00:47:38.907Z,71
2018-07-20T00:47:51.293Z,71
2018-07-20T00:48:03.702Z,71
2018-07-20T00:48:16.117Z,71
2018-07-20T00:48:28.555Z,71
2018-07-20T00:48:40.959Z,71
2018-07-20T00:48:53.585Z,71
2018-07-20T00:49:05.977Z,71
2018-07-20T00:49:18.379Z,71
2018-07-20T00:49:30.781Z,71
2018-07-20T00:49:43.185Z,71
2018-07-20T00:49:55.597Z,71
2018-07-20T00:50:08.072Z,71
2018-07-20T00:50:20.482Z,71
2018-07-20T00:50:32.873Z,71
2018-07-20T00:50:45.276Z,71
2018-07-20T00:50:57.663Z,71
2018-07-20T00:51:10.060Z,71
2018-07-20T00:51:22.453Z,71
2018-07-20T00:51:34.892Z,71
2018-07-20T00:51:47.296Z,71
2018-07-20T00:51:59.725Z,71
2018-07-20T00:52:12.155Z,71
2018-07-20T00:52:24.662Z,71
2018-07-20T00:52:37.063Z,71
2018-07-20T00:52:49.466Z,71
2018-07-20T00:53:01.865Z,71
2018-07-20T00:53:14.266Z,71
2018-07-20T00:53:26.676Z,71
2018-07-20T00:53:39.076Z,71
2018-07-20T00:53:51.493Z,71
2018-07-20T00:54:03.908Z,71
2018-07-20T00:54:16.506Z,71
2018-07-20T00:54:29.064Z,71
2018-07-20T00:54:41.462Z,71
2018-07-20T00:54:53.883Z,71
2018-07-20T00:55:06.291Z,72
2018-07-20T00:55:18.698Z,72
2018-07-20T00:55:31.100Z,72
2018-07-20T00:55:43.509Z,72
2018-07-20T00:55:55.946Z,72
2018-07-20T00:56:08.348Z,72
2018-07-20T00:56:20.736Z,72
2018-07-20T00:56:33.295Z,72
2018-07-20T00:56:45.697Z,72
2018-07-20T00:56:58.113Z,72
2018-07-20T00:57:10.503Z,72
2018-07-20T00:57:22.955Z,72
2018-07-20T00:57:35.365Z,72
2018-07-20T00:57:48.017Z,72
2018-07-20T00:58:00.539Z,72
2018-07-20T00:58:13.309Z,72
2018-07-20T00:58:25.704Z,72
2018-07-20T00:58:38.093Z,72
2018-07-20T00:58:50.474Z,72
2018-07-20T00:59:02.875Z,72
2018-07-20T00:59:15.334Z,73
2018-07-20T00:59:27.739Z,73
2018-07-20T00:59:40.169Z,73
2018-07-20T00:59:52.596Z,73
2018-07-20T01:00:05.184Z,73
2018-07-20T01:00:17.632Z,73
2018-07-20T01:00:30.293Z,73
2018-07-20T01:00:42.720Z,73
2018-07-20T01:00:49.457Z,73
2018-07-20T01:01:01.886Z,73
2018-07-20T01:01:14.321Z,73
2018-07-20T01:01:26.768Z,73
2018-07-20T01:01:39.189Z,73
2018-07-20T01:01:51.733Z,73
2018-07-20T01:02:04.136Z,73
2018-07-20T01:02:16.546Z,73
2018-07-20T01:02:28.967Z,73
2018-07-20T01:02:41.387Z,73
2018-07-20T01:02:53.792Z,73
2018-07-20T01:03:06.214Z,73
2018-07-20T01:03:18.624Z,73
2018-07-20T01:03:31.040Z,73
2018-07-20T01:03:43.581Z,73
2018-07-20T01:03:55.991Z,73
2018-07-20T01:04:08.412Z,73
2018-07-20T01:04:20.802Z,73
2018-07-20T01:04:33.221Z,73
2018-07-20T01:04:45.623Z,73
2018-07-20T01:04:58.043Z,73
2018-07-20T01:05:10.470Z,73
2018-07-20T01:05:23.012Z,73
2018-07-20T01:05:36.197Z,73
2018-07-20T01:05:48.613Z,73
2018-07-20T01:06:01.040Z,73
2018-07-20T01:06:13.462Z,73
2018-07-20T01:06:25.903Z,73
2018-07-20T01:06:38.342Z,73
2018-07-20T01:06:50.757Z,73
2018-07-20T01:07:03.150Z,73
2018-07-20T01:07:15.561Z,73
2018-07-20T01:07:27.970Z,73
2018-07-20T01:07:40.365Z,73
2018-07-20T01:07:52.771Z,73
2018-07-20T01:08:05.176Z,73
2018-07-20T01:08:17.581Z,73
2018-07-20T01:08:29.971Z,73
2018-07-20T01:08:42.400Z,73
2018-07-20T01:08:54.926Z,73
2018-07-20T01:09:07.336Z,73
2018-07-20T01:09:19.750Z,73
2018-07-20T01:09:32.160Z,73
2018-07-20T01:09:44.561Z,73
2018-07-20T01:09:56.957Z,73
2018-07-20T01:10:09.387Z,73
2018-07-20T01:10:21.816Z,73
2018-07-20T01:10:34.228Z,73
2018-07-20T01:10:46.640Z,73
2018-07-20T01:10:59.052Z,73
2018-07-20T01:11:11.462Z,73
2018-07-20T01:11:23.855Z,73
2018-07-20T01:11:36.256Z,73
2018-07-20T01:11:48.648Z,73
2018-07-20T01:12:01.023Z,73
2018-07-20T01:12:13.443Z,73
2018-07-20T01:12:25.829Z,73
2018-07-20T01:12:38.232Z,73
2018-07-20T01:12:50.612Z,73
2018-07-20T01:13:03.257Z,73
2018-07-20T01:13:15.673Z,73
2018-07-20T01:13:28.219Z,73
2018-07-20T01:13:40.621Z,73
2018-07-20T01:13:53.016Z,73
2018-07-20T01:14:05.464Z,73
2018-07-20T01:14:17.874Z,73
2018-07-20T01:14:30.275Z,73
2018-07-20T01:14:42.685Z,73
2018-07-20T01:14:55.079Z,73
2018-07-20T01:15:07.492Z,73
2018-07-20T01:15:19.902Z,73
2018-07-20T01:15:32.307Z,73
2018-07-20T01:15:44.784Z,73
2018-07-20T01:15:57.197Z,73
2018-07-20T01:16:09.607Z,73
2018-07-20T01:16:21.996Z,73
2018-07-20T01:16:34.384Z,73
2018-07-20T01:16:46.815Z,73
2018-07-20T01:16:59.209Z,73
2018-07-20T01:17:11.608Z,74
2018-07-20T01:17:23.998Z,74
2018-07-20T01:17:36.391Z,74
2018-07-20T01:17:48.826Z,74
2018-07-20T01:18:01.222Z,74
2018-07-20T01:18:13.654Z,74
2018-07-20T01:18:26.100Z,74
2018-07-20T01:18:38.485Z,74
2018-07-20T01:18:50.877Z,74
2018-07-20T01:19:03.488Z,74
2018-07-20T01:19:15.901Z,74
2018-07-20T01:19:28.315Z,74
2018-07-20T01:19:40.697Z,74
2018-07-20T01:19:53.098Z,74
2018-07-20T01:20:05.499Z,74
2018-07-20T01:20:17.882Z,74
2018-07-20T01:20:30.272Z,74
2018-07-20T01:20:42.758Z,74
2018-07-20T01:20:55.179Z,74
2018-07-20T01:21:07.647Z,74
2018-07-20T01:21:20.066Z,74
2018-07-20T01:21:32.471Z,74
2018-07-20T01:21:44.860Z,74
2018-07-20T01:21:57.250Z,74
2018-07-20T01:22:09.657Z,74
2018-07-20T01:22:22.054Z,74
2018-07-20T01:22:34.449Z,74
2018-07-20T01:22:46.849Z,74
2018-07-20T01:22:59.228Z,74
2018-07-20T01:23:11.625Z,74
2018-07-20T01:23:24.018Z,74
2018-07-20T01:23:36.427Z,74
2018-07-20T01:23:48.815Z,74
2018-07-20T01:24:01.199Z,74
2018-07-20T01:24:13.621Z,74
2018-07-20T01:24:26.029Z,74
2018-07-20T01:24:38.420Z,74
2018-07-20T01:24:50.819Z,74
2018-07-20T01:25:03.321Z,74
2018-07-20T01:25:15.718Z,74
2018-07-20T01:25:28.132Z,74
2018-07-20T01:25:40.532Z,74
2018-07-20T01:25:52.910Z,74
2018-07-20T01:26:05.292Z,74
2018-07-20T01:26:17.688Z,74
2018-07-20T01:26:30.079Z,74
2018-07-20T01:26:42.470Z,74
2018-07-20T01:26:54.868Z,74
2018-07-20T01:27:07.281Z,74
2018-07-20T01:27:19.662Z,74
2018-07-20T01:27:32.088Z,74
2018-07-20T01:27:44.515Z,74
2018-07-20T01:27:56.900Z,74
2018-07-20T01:28:09.307Z,74
2018-07-20T01:28:21.703Z,74
2018-07-20T01:28:34.119Z,74
2018-07-20T01:28:46.526Z,74
2018-07-20T01:28:58.937Z,74
2018-07-20T01:29:11.353Z,74
2018-07-20T01:29:23.776Z,74
2018-07-20T01:29:36.160Z,74
2018-07-20T01:29:48.545Z,74
2018-07-20T01:30:00.955Z,74
2018-07-20T01:30:13.469Z,74
2018-07-20T01:30:25.873Z,74
2018-07-20T01:30:38.261Z,74
2018-07-20T01:30:50.814Z,74
2018-07-20T01:31:03.302Z,74
2018-07-20T01:31:15.905Z,74
2018-07-20T01:31:28.322Z,74
2018-07-20T01:31:40.739Z,74
2018-07-20T01:31:53.153Z,74
2018-07-20T01:32:05.602Z,74
2018-07-20T01:32:17.989Z,74
2018-07-20T01:32:30.501Z,74
2018-07-20T01:32:42.908Z,74
2018-07-20T01:32:55.304Z,74
2018-07-20T01:33:07.722Z,74
2018-07-20T01:33:20.122Z,74
2018-07-20T01:33:32.525Z,74
2018-07-20T01:33:44.918Z,74
2018-07-20T01:33:57.313Z,74
2018-07-20T01:34:09.718Z,74
2018-07-20T01:34:22.115Z,75
2018-07-20T01:34:34.525Z,75
2018-07-20T01:34:46.936Z,75
2018-07-20T01:34:59.341Z,75
2018-07-20T01:35:11.763Z,75
2018-07-20T01:35:24.163Z,75
2018-07-20T01:35:36.584Z,75
2018-07-20T01:35:49.059Z,75
2018-07-20T01:36:01.456Z,75
2018-07-20T01:36:13.859Z,75
2018-07-20T01:36:26.258Z,75
2018-07-20T01:36:38.650Z,75
2018-07-20T01:36:51.099Z,75
2018-07-20T01:37:03.534Z,75
2018-07-20T01:37:15.932Z,75
2018-07-20T01:37:28.524Z,75
2018-07-20T01:37:40.928Z,75
2018-07-20T01:37:53.328Z,75
2018-07-20T01:38:05.732Z,75
2018-07-20T01:38:18.129Z,75
2018-07-20T01:38:30.510Z,74
2018-07-20T01:38:42.901Z,74
2018-07-20T01:38:55.311Z,74
2018-07-20T01:39:07.713Z,74
2018-07-20T01:39:20.107Z,74
2018-07-20T01:39:32.524Z,74
2018-07-20T01:39:44.929Z,74
2018-07-20T01:39:57.333Z,74
2018-07-20T01:40:09.746Z,74
2018-07-20T01:40:22.143Z,74
2018-07-20T01:40:34.537Z,74
2018-07-20T01:40:46.934Z,74
2018-07-20T01:40:59.374Z,74
2018-07-20T01:41:11.764Z,74
2018-07-20T01:41:24.167Z,74
2018-07-20T01:41:36.564Z,74
2018-07-20T01:41:48.979Z,74
2018-07-20T01:42:01.371Z,74
2018-07-20T01:42:13.761Z,74
2018-07-20T01:42:26.194Z,74
2018-07-20T01:42:38.581Z,74
2018-07-20T01:42:50.986Z,75
2018-07-20T01:43:03.383Z,75
2018-07-20T01:43:15.767Z,75
2018-07-20T01:43:28.163Z,75
2018-07-20T01:43:40.556Z,75
2018-07-20T01:43:52.946Z,75
2018-07-20T01:44:05.356Z,75
2018-07-20T01:44:17.773Z,75
2018-07-20T01:44:30.189Z,74
2018-07-20T01:44:42.582Z,74
2018-07-20T01:44:54.983Z,74
2018-07-20T01:45:07.369Z,74
2018-07-20T01:45:19.827Z,74
2018-07-20T01:45:32.250Z,74
2018-07-20T01:45:44.656Z,74
2018-07-20T01:45:57.044Z,74
2018-07-20T01:46:09.431Z,74
2018-07-20T01:46:21.841Z,75
2018-07-20T01:46:34.241Z,75
2018-07-20T01:46:46.641Z,75
2018-07-20T01:46:59.051Z,75
2018-07-20T01:47:11.452Z,75
2018-07-20T01:47:23.841Z,75
2018-07-20T01:47:36.276Z,75
2018-07-20T01:47:48.684Z,75
2018-07-20T01:48:01.098Z,75
2018-07-20T01:48:13.520Z,75
2018-07-20T01:48:25.911Z,75
2018-07-20T01:48:38.314Z,75
2018-07-20T01:48:50.873Z,76
2018-07-20T01:49:03.305Z,76
2018-07-20T01:49:15.707Z,76
2018-07-20T01:49:28.103Z,76
2018-07-20T01:49:40.511Z,75
2018-07-20T01:49:52.921Z,75
2018-07-20T01:50:05.325Z,75
2018-07-20T01:50:17.717Z,75
2018-07-20T01:50:30.174Z,75
2018-07-20T01:50:42.608Z,75
2018-07-20T01:50:54.994Z,75
2018-07-20T01:51:07.384Z,75
2018-07-20T01:51:19.808Z,75
2018-07-20T01:51:32.192Z,75
2018-07-20T01:51:44.602Z,75
2018-07-20T01:51:57.011Z,75
2018-07-20T01:52:09.419Z,74
2018-07-20T01:52:21.832Z,74
2018-07-20T01:52:34.256Z,74
2018-07-20T01:52:46.647Z,74
2018-07-20T01:52:59.029Z,74
2018-07-20T01:53:11.413Z,75
2018-07-20T01:53:23.817Z,75
2018-07-20T01:53:36.203Z,75
2018-07-20T01:53:48.593Z,75
2018-07-20T01:54:01.000Z,75
2018-07-20T01:54:13.537Z,75
2018-07-20T01:54:25.946Z,75
2018-07-20T01:54:38.324Z,75
2018-07-20T01:54:50.708Z,74
2018-07-20T01:55:03.255Z,74
2018-07-20T01:55:15.660Z,74
2018-07-20T01:55:28.073Z,74
2018-07-20T01:55:40.507Z,75
2018-07-20T01:55:52.889Z,75
2018-07-20T01:56:05.329Z,75
2018-07-20T01:56:17.723Z,75
2018-07-20T01:56:30.131Z,75
2018-07-20T01:56:42.524Z,75
2018-07-20T01:56:54.904Z,75
2018-07-20T01:57:07.299Z,75
2018-07-20T01:57:19.729Z,75
2018-07-20T01:57:32.117Z,75
2018-07-20T01:57:44.515Z,75
2018-07-20T01:57:56.963Z,75
2018-07-20T01:58:09.545Z,75
2018-07-20T01:58:22.071Z,75
2018-07-20T01:58:34.462Z,75
2018-07-20T01:58:46.869Z,75
2018-07-20T01:58:59.255Z,75
2018-07-20T01:59:11.675Z,75
2018-07-20T01:59:24.079Z,75
2018-07-20T01:59:36.480Z,75
2018-07-20T01:59:48.918Z,75
2018-07-20T02:00:01.335Z,75
2018-07-20T02:00:13.822Z,75
2018-07-20T02:00:26.375Z,75
2018-07-20T02:00:38.782Z,75
2018-07-20T02:00:51.201Z,75
2018-07-20T02:01:03.627Z,75
2018-07-20T02:01:16.048Z,75
2018-07-20T02:01:28.494Z,75
2018-07-20T02:01:40.896Z,75
2018-07-20T02:01:53.433Z,75
2018-07-20T02:02:05.832Z,75
2018-07-20T02:02:18.250Z,75
2018-07-20T02:02:30.725Z,75
2018-07-20T02:02:43.114Z,75
2018-07-20T02:02:55.531Z,75
2018-07-20T02:03:07.932Z,75
2018-07-20T02:03:20.341Z,75
2018-07-20T02:03:32.747Z,75
2018-07-20T02:03:45.349Z,75
2018-07-20T02:03:57.764Z,75
2018-07-20T02:04:10.155Z,76
2018-07-20T02:04:22.758Z,76
2018-07-20T02:04:35.204Z,76
2018-07-20T02:04:47.597Z,76
2018-07-20T02:05:00.006Z,76
2018-07-20T02:05:12.426Z,76
2018-07-20T02:05:24.982Z,76
2018-07-20T02:05:37.386Z,76
2018-07-20T02:05:49.782Z,76
2018-07-20T02:06:02.181Z,76
2018-07-20T02:06:14.594Z,76
2018-07-20T02:06:26.979Z,76
2018-07-20T02:06:39.388Z,76
2018-07-20T02:06:51.857Z,76
2018-07-20T02:07:04.249Z,76
2018-07-20T02:07:16.698Z,76
2018-07-20T02:07:29.099Z,76
2018-07-20T02:07:41.496Z,76
2018-07-20T02:07:53.912Z,76
2018-07-20T02:08:06.321Z,76
2018-07-20T02:08:18.725Z,76
2018-07-20T02:08:31.118Z,76
2018-07-20T02:08:43.511Z,76
2018-07-20T02:08:55.932Z,76
2018-07-20T02:09:08.334Z,76
2018-07-20T02:09:20.725Z,76
2018-07-20T02:09:33.133Z,76
2018-07-20T02:09:45.523Z,76
2018-07-20T02:09:57.933Z,76
2018-07-20T02:10:10.333Z,76
2018-07-20T02:10:22.795Z,76
2018-07-20T02:10:35.194Z,76
2018-07-20T02:10:47.593Z,76
2018-07-20T02:11:00.029Z,76
2018-07-20T02:11:12.421Z,76
2018-07-20T02:11:24.995Z,76
2018-07-20T02:11:37.419Z,76
2018-07-20T02:11:49.829Z,76
2018-07-20T02:12:02.223Z,76
2018-07-20T02:12:14.616Z,76
2018-07-20T02:12:27.014Z,76
2018-07-20T02:12:39.404Z,76
2018-07-20T02:12:51.825Z,76
2018-07-20T02:13:04.444Z,76
2018-07-20T02:13:16.851Z,76
2018-07-20T02:13:29.390Z,76
2018-07-20T02:13:41.786Z,76
2018-07-20T02:13:54.181Z,76
2018-07-20T02:14:06.590Z,76
2018-07-20T02:14:18.981Z,76
2018-07-20T02:14:31.380Z,76
2018-07-20T02:14:43.780Z,76
2018-07-20T02:14:56.263Z,76
2018-07-20T02:15:08.687Z,76
2018-07-20T02:15:21.071Z,76
2018-07-20T02:15:33.508Z,76
2018-07-20T02:15:45.902Z,76
2018-07-20T02:15:58.338Z,76
2018-07-20T02:16:10.752Z,75
2018-07-20T02:16:23.174Z,75
2018-07-20T02:16:35.587Z,75
2018-07-20T02:16:47.983Z,75
2018-07-20T02:17:00.374Z,75
2018-07-20T02:17:12.772Z,75
2018-07-20T02:17:25.183Z,75
2018-07-20T02:17:37.613Z,75
2018-07-20T02:17:50.027Z,75
2018-07-20T02:18:02.533Z,75
2018-07-20T02:18:14.948Z,75
2018-07-20T02:18:27.421Z,75
2018-07-20T02:18:39.825Z,75
2018-07-20T02:18:52.224Z,75
2018-07-20T02:19:04.728Z,75
2018-07-20T02:19:17.142Z,75
2018-07-20T02:19:29.536Z,75
2018-07-20T02:19:41.930Z,75
2018-07-20T02:19:54.311Z,75
2018-07-20T02:20:06.772Z,75
2018-07-20T02:20:19.173Z,74
2018-07-20T02:20:31.586Z,74
2018-07-20T02:20:44.126Z,74
2018-07-20T02:20:56.526Z,74
2018-07-20T02:21:08.913Z,74
2018-07-20T02:21:21.330Z,74
2018-07-20T02:21:34.236Z,74
2018-07-20T02:21:46.871Z,74
2018-07-20T02:21:59.275Z,74
2018-07-20T02:22:11.671Z,74
2018-07-20T02:22:24.061Z,74
2018-07-20T02:22:36.438Z,74
2018-07-20T02:22:48.850Z,74
2018-07-20T02:23:01.241Z,74
2018-07-20T02:23:13.993Z,74
2018-07-20T02:23:26.387Z,74
2018-07-20T02:23:38.763Z,74
2018-07-20T02:23:51.161Z,74
2018-07-20T02:24:03.547Z,74
2018-07-20T02:24:15.993Z,74
2018-07-20T02:24:28.397Z,74
2018-07-20T02:24:40.835Z,74
2018-07-20T02:24:53.243Z,74
2018-07-20T02:25:05.793Z,74
2018-07-20T02:25:18.211Z,74
2018-07-20T02:25:30.628Z,74
2018-07-20T02:25:43.032Z,74
2018-07-20T02:25:55.475Z,74
2018-07-20T02:26:07.888Z,74
2018-07-20T02:26:20.304Z,74
2018-07-20T02:26:32.698Z,74
2018-07-20T02:26:45.103Z,74
2018-07-20T02:26:57.537Z,74
2018-07-20T02:27:09.940Z,74
2018-07-20T02:27:22.368Z,74
2018-07-20T02:27:34.787Z,74
2018-07-20T02:27:47.199Z,74
2018-07-20T02:27:59.601Z,74
2018-07-20T02:28:11.996Z,74
2018-07-20T02:28:24.389Z,74
2018-07-20T02:28:36.801Z,74
2018-07-20T02:28:49.196Z,74
2018-07-20T02:29:01.590Z,74
2018-07-20T02:29:13.999Z,74
2018-07-20T02:29:26.728Z,74
2018-07-20T02:29:40.041Z,74
2018-07-20T02:29:52.448Z,74
2018-07-20T02:30:04.910Z,74
2018-07-20T02:30:17.340Z,74
2018-07-20T02:30:29.760Z,74
2018-07-20T02:30:42.197Z,74
2018-07-20T02:30:54.785Z,74
2018-07-20T02:31:07.221Z,74
2018-07-20T02:31:19.683Z,74
2018-07-20T02:31:32.164Z,74
2018-07-20T02:31:44.634Z,74
2018-07-20T02:31:57.068Z,74
2018-07-20T02:32:09.492Z,74
2018-07-20T02:32:21.920Z,74
2018-07-20T02:32:34.549Z,74
2018-07-20T02:32:46.996Z,74
2018-07-20T02:32:59.450Z,74
2018-07-20T02:33:11.861Z,74
2018-07-20T02:33:24.256Z,74
2018-07-20T02:33:36.697Z,74
2018-07-20T02:33:49.152Z,74
2018-07-20T02:34:01.556Z,74
2018-07-20T02:34:14.003Z,74
2018-07-20T02:34:26.432Z,74
2018-07-20T02:34:38.862Z,74
2018-07-20T02:34:51.298Z,74
2018-07-20T02:35:03.722Z,74
2018-07-20T02:35:16.198Z,74
2018-07-20T02:35:28.648Z,74
2018-07-20T02:35:41.036Z,74
2018-07-20T02:35:53.461Z,74
2018-07-20T02:36:05.884Z,74
2018-07-20T02:36:18.328Z,74
2018-07-20T02:36:30.748Z,74
2018-07-20T02:36:43.154Z,74
2018-07-20T02:36:55.576Z,74
2018-07-20T02:37:08.031Z,74
2018-07-20T02:37:20.538Z,74
2018-07-20T02:37:33.008Z,74
2018-07-20T02:37:45.454Z,74
2018-07-20T02:37:57.869Z,74
2018-07-20T02:38:10.322Z,74
2018-07-20T02:38:22.741Z,74
2018-07-20T02:38:35.154Z,74
2018-07-20T02:38:47.557Z,74
2018-07-20T02:39:00.009Z,74
2018-07-20T02:39:12.449Z,74
2018-07-20T02:39:24.895Z,74
2018-07-20T02:39:37.331Z,74
2018-07-20T02:39:49.741Z,74
2018-07-20T02:40:02.159Z,74
2018-07-20T02:40:14.655Z,74
2018-07-20T02:40:27.072Z,74
2018-07-20T02:40:39.484Z,74
2018-07-20T02:40:51.975Z,74
2018-07-20T02:41:04.403Z,74
2018-07-20T02:41:16.815Z,74
2018-07-20T02:41:29.227Z,74
2018-07-20T02:41:41.653Z,75
2018-07-20T02:41:54.112Z,75
2018-07-20T02:42:06.551Z,75
2018-07-20T02:42:18.987Z,75
2018-07-20T02:42:31.395Z,75
2018-07-20T02:42:43.849Z,75
2018-07-20T02:42:56.285Z,75
2018-07-20T02:43:08.692Z,75
2018-07-20T02:43:21.096Z,75
2018-07-20T02:43:33.626Z,75
2018-07-20T02:43:46.135Z,75
2018-07-20T02:43:58.532Z,75
2018-07-20T02:44:10.969Z,75
2018-07-20T02:44:23.405Z,75
2018-07-20T02:44:35.858Z,75
2018-07-20T02:44:48.298Z,75
2018-07-20T02:45:00.716Z,75
2018-07-20T02:45:13.147Z,75
2018-07-20T02:45:25.628Z,75
2018-07-20T02:45:38.064Z,75
2018-07-20T02:45:50.507Z,75
2018-07-20T02:46:02.965Z,75
2018-07-20T02:46:15.376Z,75
2018-07-20T02:46:27.802Z,75
2018-07-20T02:46:40.232Z,75
2018-07-20T02:46:52.630Z,75
2018-07-20T02:47:05.113Z,75
2018-07-20T02:47:17.676Z,75
2018-07-20T02:47:30.104Z,75
2018-07-20T02:47:42.549Z,75
2018-07-20T02:47:54.983Z,75
2018-07-20T02:48:07.421Z,75
2018-07-20T02:48:19.850Z,75
2018-07-20T02:48:32.317Z,75
2018-07-20T02:48:44.726Z,75
2018-07-20T02:48:57.356Z,75
2018-07-20T02:49:09.773Z,75
2018-07-20T02:49:22.180Z,75
2018-07-20T02:49:34.600Z,75
2018-07-20T02:49:47.059Z,75
2018-07-20T02:49:59.476Z,75
2018-07-20T02:50:11.895Z,75
2018-07-20T02:50:24.348Z,76
2018-07-20T02:50:36.828Z,76
2018-07-20T02:50:49.236Z,76
2018-07-20T02:51:01.710Z,76
2018-07-20T02:51:14.140Z,76
2018-07-20T02:51:26.568Z,76
2018-07-20T02:51:38.979Z,76
2018-07-20T02:51:51.406Z,76
2018-07-20T02:52:03.849Z,76
2018-07-20T02:52:16.285Z,76
2018-07-20T02:52:28.716Z,76
2018-07-20T02:52:41.123Z,76
2018-07-20T02:52:53.600Z,76
2018-07-20T02:53:06.079Z,76
2018-07-20T02:53:18.485Z,76
2018-07-20T02:53:30.914Z,76
2018-07-20T02:53:43.357Z,76
2018-07-20T02:53:55.805Z,76
2018-07-20T02:54:08.209Z,76
2018-07-20T02:54:20.837Z,76
2018-07-20T02:54:33.254Z,76
2018-07-20T02:54:45.723Z,76
2018-07-20T02:54:58.155Z,76
2018-07-20T02:55:10.572Z,76
2018-07-20T02:55:22.992Z,76
2018-07-20T02:55:35.446Z,76
2018-07-20T02:55:47.965Z,76
2018-07-20T02:56:00.375Z,76
2018-07-20T02:56:12.828Z,76
2018-07-20T02:56:25.224Z,76
2018-07-20T02:56:37.641Z,76
2018-07-20T02:56:50.044Z,76
2018-07-20T02:57:02.521Z,76
2018-07-20T02:57:14.942Z,76